createdAt,value
2018-07-26T00:00:35.138Z,100.00
2018-07-26T00:03:06.169Z,100.00
2018-07-26T00:05:37.370Z,100.00
2018-07-26T00:08:08.369Z,100.00
2018-07-26T00:10:39.267Z,100.00
2018-07-26T00:13:10.636Z,100.00
2018-07-26T00:15:41.727Z,100.00
2018-07-26T00:18:12.714Z,100.00
2018-07-26T00:20:43.514Z,100.00
2018-07-26T00:23:14.706Z,100.00
2018-07-26T00:25:45.721Z,100.00
2018-07-26T00:28:17.232Z,100.00
2018-07-26T00:30:48.453Z,100.00
2018-07-26T00:33:19.171Z,100.00
2018-07-26T00:35:50.087Z,100.00
2018-07-26T00:38:20.862Z,100.00
2018-07-26T00:40:51.663Z,100.00
2018-07-26T00:43:22.666Z,100.00
2018-07-26T00:45:53.759Z,100.00
2018-07-26T00:48:25.612Z,100.00
2018-07-26T00:50:56.625Z,100.00
2018-07-26T00:53:27.592Z,100.00
2018-07-26T00:55:59.419Z,100.00
2018-07-26T00:58:30.505Z,100.00
2018-07-26T01:01:01.328Z,100.00
2018-07-26T01:03:32.382Z,100.00
2018-07-26T01:06:03.228Z,100.00
2018-07-26T01:08:34.034Z,100.00
2018-07-26T01:11:04.895Z,100.00
2018-07-26T01:13:35.716Z,100.00
2018-07-26T01:16:06.549Z,100.00
2018-07-26T01:18:38.319Z,100.00
2018-07-26T01:21:09.200Z,100.00
2018-07-26T01:23:40.565Z,100.00
2018-07-26T01:26:12.100Z,100.00
2018-07-26T01:28:43.840Z,100.00
2018-07-26T01:31:14.749Z,100.00
2018-07-26T01:33:45.729Z,100.00
2018-07-26T01:36:16.862Z,100.00
2018-07-26T01:38:47.773Z,100.00
2018-07-26T01:41:18.865Z,100.00
2018-07-26T01:44:00.420Z,100.00
2018-07-26T01:46:31.329Z,100.00
2018-07-26T01:49:03.027Z,100.00
2018-07-26T01:51:33.685Z,100.00
2018-07-26T01:54:04.752Z,100.00
2018-07-26T01:56:35.579Z,100.00
2018-07-26T01:59:07.453Z,100.00
2018-07-26T02:01:38.582Z,100.00
2018-07-26T02:04:09.694Z,100.00
2018-07-26T02:06:40.679Z,100.00
2018-07-26T02:09:12.599Z,100.00
2018-07-26T02:11:43.940Z,100.00
2018-07-26T02:14:19.844Z,100.00
2018-07-26T02:16:50.691Z,100.00
2018-07-26T02:19:21.898Z,100.00
2018-07-26T02:21:53.138Z,100.00
2018-07-26T02:24:24.131Z,100.00
2018-07-26T02:26:55.128Z,100.00
2018-07-26T02:29:26.752Z,100.00
2018-07-26T02:31:59.144Z,100.00
2018-07-26T02:34:30.231Z,100.00
2018-07-26T02:37:03.278Z,100.00
2018-07-26T02:39:35.273Z,100.00
2018-07-26T02:42:06.425Z,100.00
2018-07-26T02:44:37.527Z,100.00
2018-07-26T02:47:08.515Z,100.00
2018-07-26T02:49:39.510Z,100.00
2018-07-26T02:52:10.615Z,100.00
2018-07-26T02:54:41.409Z,100.00
2018-07-26T02:57:12.630Z,100.00
2018-07-26T02:59:44.480Z,100.00
2018-07-26T03:02:17.030Z,100.00
2018-07-26T03:04:48.270Z,100.00
2018-07-26T03:07:19.259Z,100.00
2018-07-26T03:09:50.253Z,100.00
2018-07-26T03:12:21.475Z,100.00
2018-07-26T03:14:52.359Z,100.00
2018-07-26T03:17:24.241Z,100.00
2018-07-26T03:19:56.533Z,100.00
2018-07-26T03:22:27.733Z,100.00
2018-07-26T03:24:58.938Z,100.00
2018-07-26T03:27:30.237Z,100.00
2018-07-26T03:30:02.204Z,100.00
2018-07-26T03:32:33.505Z,100.00
2018-07-26T03:35:04.828Z,100.00
2018-07-26T03:37:36.093Z,100.00
2018-07-26T03:40:08.251Z,100.00
2018-07-26T03:42:39.408Z,100.00
2018-07-26T03:45:10.456Z,100.00
2018-07-26T03:47:43.217Z,99.98
2018-07-26T03:50:14.413Z,94.25
2018-07-26T03:52:45.313Z,93.47
2018-07-26T03:55:16.292Z,91.47
2018-07-26T03:57:47.730Z,91.10
2018-07-26T04:00:19.524Z,89.47
2018-07-26T04:02:50.665Z,84.45
2018-07-26T04:05:21.732Z,82.83
2018-07-26T04:07:54.257Z,81.88
2018-07-26T04:10:25.822Z,79.50
2018-07-26T04:12:56.524Z,77.47
2018-07-26T04:15:28.712Z,79.32
2018-07-26T04:18:05.392Z,79.55
2018-07-26T04:20:36.542Z,77.90
2018-07-26T04:23:08.570Z,80.05
2018-07-26T04:25:39.631Z,79.49
2018-07-26T04:28:10.461Z,83.70
2018-07-26T04:30:43.143Z,86.59
2018-07-26T04:33:13.987Z,85.19
2018-07-26T04:35:45.314Z,86.74
2018-07-26T04:38:16.131Z,85.84
2018-07-26T04:40:47.285Z,85.52
2018-07-26T04:43:18.151Z,78.87
2018-07-26T04:45:49.259Z,77.91
2018-07-26T04:48:20.141Z,81.59
2018-07-26T04:50:51.874Z,86.75
2018-07-26T04:53:24.246Z,86.76
2018-07-26T04:55:55.371Z,86.99
2018-07-26T04:58:26.250Z,87.74
2018-07-26T05:00:58.149Z,85.10
2018-07-26T05:03:29.273Z,89.34
2018-07-26T05:06:00.321Z,89.77
2018-07-26T05:08:31.438Z,88.41
2018-07-26T05:11:02.437Z,79.94
2018-07-26T05:13:33.384Z,75.58
2018-07-26T05:16:04.415Z,66.82
2018-07-26T05:18:35.428Z,62.31
2018-07-26T05:21:06.334Z,65.90
2018-07-26T05:23:37.428Z,62.45
2018-07-26T05:26:09.788Z,56.66
2018-07-26T05:28:40.900Z,53.34
2018-07-26T05:33:57.614Z,58.18
2018-07-26T05:36:28.619Z,58.31
2018-07-26T05:38:59.743Z,56.19
2018-07-26T05:41:30.991Z,49.91
2018-07-26T05:44:02.059Z,47.24
2018-07-26T05:46:33.253Z,47.26
2018-07-26T05:49:04.425Z,46.93
2018-07-26T05:51:35.412Z,46.19
2018-07-26T05:54:06.717Z,45.33
2018-07-26T05:56:37.854Z,46.51
2018-07-26T05:59:10.877Z,45.41
2018-07-26T06:01:42.658Z,48.68
2018-07-26T06:04:14.744Z,50.26
2018-07-26T06:06:46.190Z,50.34
2018-07-26T06:09:17.140Z,44.54
2018-07-26T06:11:48.380Z,41.72
2018-07-26T06:14:19.503Z,37.97
2018-07-26T06:16:51.512Z,36.33
2018-07-26T06:19:22.356Z,36.85
2018-07-26T06:21:53.597Z,35.83
2018-07-26T06:24:24.379Z,37.90
2018-07-26T06:26:55.846Z,40.40
2018-07-26T06:29:27.088Z,41.30
2018-07-26T06:31:59.033Z,46.41
2018-07-26T06:34:30.036Z,46.03
2018-07-26T06:37:01.406Z,46.28
2018-07-26T06:39:32.640Z,44.37
2018-07-26T06:42:04.682Z,42.31
2018-07-26T06:44:35.824Z,41.09
2018-07-26T06:47:08.022Z,42.43
2018-07-26T06:49:39.114Z,44.94
2018-07-26T06:52:10.111Z,51.11
2018-07-26T06:54:41.057Z,57.39
2018-07-26T06:57:12.105Z,58.82
2018-07-26T06:59:46.092Z,58.89
2018-07-26T07:02:17.996Z,63.06
2018-07-26T07:04:49.406Z,61.85
2018-07-26T07:07:20.670Z,62.80
2018-07-26T07:09:51.975Z,66.37
2018-07-26T07:12:22.961Z,66.06
2018-07-26T07:14:54.393Z,64.86
2018-07-26T07:17:26.259Z,63.99
2018-07-26T07:19:57.714Z,63.95
2018-07-26T07:22:28.834Z,61.78
2018-07-26T07:24:59.565Z,60.86
2018-07-26T07:27:30.720Z,60.84
2018-07-26T07:30:03.355Z,62.74
2018-07-26T07:32:35.427Z,62.98
2018-07-26T07:35:06.704Z,61.94
2018-07-26T07:37:38.317Z,58.89
2018-07-26T07:40:10.179Z,61.90
2018-07-26T07:42:41.269Z,63.29
2018-07-26T07:45:12.517Z,63.79
2018-07-26T07:47:43.748Z,63.23
2018-07-26T07:50:14.859Z,60.67
2018-07-26T07:52:45.924Z,60.64
2018-07-26T07:55:18.843Z,61.30
2018-07-26T07:57:50.742Z,59.51
2018-07-26T08:00:21.793Z,58.95
2018-07-26T08:02:55.334Z,56.20
2018-07-26T08:05:26.614Z,54.81
2018-07-26T08:07:58.528Z,54.99
2018-07-26T08:10:30.597Z,54.35
2018-07-26T08:13:02.021Z,55.66
2018-07-26T08:15:33.146Z,56.50
2018-07-26T08:18:04.403Z,56.98
2018-07-26T08:20:35.586Z,57.77
2018-07-26T08:23:06.945Z,59.08
2018-07-26T08:25:38.036Z,56.62
2018-07-26T08:28:09.886Z,57.75
2018-07-26T08:30:40.890Z,60.13
2018-07-26T08:33:12.395Z,58.52
2018-07-26T08:35:43.456Z,59.21
2018-07-26T08:38:14.911Z,58.05
2018-07-26T08:40:46.045Z,61.31
2018-07-26T08:43:17.177Z,61.31
2018-07-26T08:45:48.196Z,60.54
2018-07-26T08:48:19.604Z,60.25
2018-07-26T08:50:51.594Z,58.40
2018-07-26T08:53:22.752Z,57.27
2018-07-26T08:55:53.998Z,58.93
2018-07-26T08:58:25.186Z,59.59
2018-07-26T09:00:57.329Z,58.18
2018-07-26T09:03:28.176Z,57.67
2018-07-26T09:05:59.326Z,57.24
2018-07-26T09:08:30.847Z,57.59
2018-07-26T09:11:02.718Z,58.56
2018-07-26T09:13:33.995Z,56.87
2018-07-26T09:16:05.780Z,57.15
2018-07-26T09:18:36.790Z,55.26
2018-07-26T09:21:08.601Z,56.06
2018-07-26T09:23:39.498Z,55.64
2018-07-26T09:26:10.841Z,53.84
2018-07-26T09:28:41.978Z,54.32
2018-07-26T09:31:13.332Z,53.12
2018-07-26T09:33:44.744Z,53.12
2018-07-26T09:36:16.033Z,52.44
2018-07-26T09:38:47.280Z,54.75
2018-07-26T09:41:19.634Z,54.46
2018-07-26T09:43:50.808Z,54.41
2018-07-26T09:46:22.233Z,54.01
2018-07-26T09:48:53.466Z,56.05
2018-07-26T09:51:25.281Z,54.65
2018-07-26T09:53:56.528Z,55.70
2018-07-26T09:56:27.549Z,57.14
2018-07-26T09:58:58.837Z,57.75
2018-07-26T10:01:31.872Z,59.30
2018-07-26T10:04:03.533Z,55.51
2018-07-26T10:06:36.843Z,56.64
2018-07-26T10:09:12.925Z,53.63
2018-07-26T10:11:44.522Z,54.99
2018-07-26T10:14:16.027Z,54.33
2018-07-26T10:16:46.997Z,56.62
2018-07-26T10:19:17.932Z,55.86
2018-07-26T10:21:48.962Z,56.34
2018-07-26T10:24:20.090Z,55.97
2018-07-26T10:26:52.231Z,57.16
2018-07-26T10:29:24.548Z,57.24
2018-07-26T10:31:55.848Z,54.06
2018-07-26T10:34:26.791Z,53.90
2018-07-26T10:36:58.015Z,53.80
2018-07-26T10:39:29.754Z,51.62
2018-07-26T10:42:00.767Z,50.93
2018-07-26T10:44:31.677Z,53.18
2018-07-26T10:47:03.728Z,52.32
2018-07-26T10:49:41.645Z,51.73
2018-07-26T10:52:13.788Z,53.62
2018-07-26T10:54:44.679Z,51.26
2018-07-26T10:57:15.985Z,54.62
2018-07-26T10:59:47.057Z,53.42
2018-07-26T11:02:18.449Z,53.82
2018-07-26T11:04:49.524Z,54.73
2018-07-26T11:07:20.685Z,54.67
2018-07-26T11:09:51.808Z,55.65
2018-07-26T11:12:22.750Z,56.35
2018-07-26T11:14:55.102Z,55.18
2018-07-26T11:17:25.924Z,53.44
2018-07-26T11:19:56.945Z,53.57
2018-07-26T11:22:28.243Z,53.39
2018-07-26T11:25:00.126Z,52.89
2018-07-26T11:27:31.198Z,53.03
2018-07-26T11:30:05.263Z,52.67
2018-07-26T11:32:36.690Z,54.36
2018-07-26T11:35:09.239Z,53.60
2018-07-26T11:37:41.426Z,53.77
2018-07-26T11:40:12.798Z,53.62
2018-07-26T11:42:44.123Z,53.90
2018-07-26T11:45:17.068Z,56.02
2018-07-26T11:47:48.342Z,56.32
2018-07-26T11:50:19.900Z,56.90
2018-07-26T11:52:50.943Z,58.69
2018-07-26T11:55:22.235Z,59.13
2018-07-26T11:57:54.636Z,60.36
2018-07-26T12:00:25.731Z,60.14
2018-07-26T12:02:57.551Z,59.65
2018-07-26T12:05:32.633Z,58.59
2018-07-26T12:08:04.024Z,58.57
2018-07-26T12:10:35.928Z,60.26
2018-07-26T12:13:06.927Z,60.49
2018-07-26T12:15:37.977Z,63.92
2018-07-26T12:18:09.322Z,61.52
2018-07-26T12:20:40.577Z,61.88
2018-07-26T12:23:12.633Z,62.29
2018-07-26T12:25:43.856Z,61.91
2018-07-26T12:28:15.348Z,63.63
2018-07-26T12:30:46.456Z,65.87
2018-07-26T12:33:17.944Z,67.62
2018-07-26T12:35:49.968Z,66.41
2018-07-26T12:38:27.287Z,63.45
2018-07-26T12:40:58.757Z,66.99
2018-07-26T12:43:30.813Z,66.62
2018-07-26T12:46:02.336Z,68.19
2018-07-26T12:48:33.531Z,66.85
2018-07-26T12:51:04.665Z,68.10
2018-07-26T12:53:36.613Z,68.64
2018-07-26T12:56:07.893Z,68.55
2018-07-26T12:58:39.350Z,67.10
2018-07-26T13:01:10.615Z,65.15
2018-07-26T13:03:45.753Z,64.54
2018-07-26T13:06:19.530Z,66.70
2018-07-26T13:08:51.843Z,66.63
2018-07-26T13:11:28.711Z,65.61
2018-07-26T13:14:00.599Z,70.37
2018-07-26T13:16:31.655Z,68.56
2018-07-26T13:19:03.282Z,68.13
2018-07-26T13:21:47.977Z,68.53
2018-07-26T13:24:26.081Z,66.13
2018-07-26T13:26:57.996Z,65.38
2018-07-26T13:29:30.741Z,64.25
2018-07-26T13:32:01.957Z,62.14
2018-07-26T13:34:32.917Z,62.22
2018-07-26T13:37:03.960Z,62.16
2018-07-26T13:39:35.838Z,64.43
2018-07-26T13:42:07.666Z,64.15
2018-07-26T13:44:39.073Z,64.81
2018-07-26T13:47:10.297Z,63.68
2018-07-26T13:49:41.822Z,64.19
2018-07-26T13:52:12.710Z,63.68
2018-07-26T13:54:46.357Z,60.51
2018-07-26T13:57:17.857Z,60.63
2018-07-26T13:59:49.516Z,60.03
2018-07-26T14:02:20.669Z,57.71
2018-07-26T14:04:52.879Z,61.44
2018-07-26T14:07:24.194Z,63.83
2018-07-26T14:09:55.556Z,64.99
2018-07-26T14:12:26.709Z,60.67
2018-07-26T14:14:58.096Z,65.03
2018-07-26T14:17:29.205Z,66.00
2018-07-26T14:20:00.354Z,70.29
2018-07-26T14:22:31.573Z,72.13
2018-07-26T14:25:02.829Z,73.28
2018-07-26T14:27:33.966Z,76.71
2018-07-26T14:30:06.135Z,77.36
2018-07-26T14:32:38.932Z,79.03
2018-07-26T14:35:10.000Z,83.21
2018-07-26T14:37:41.400Z,85.29
2018-07-26T14:40:12.504Z,87.87
2018-07-26T14:42:44.008Z,88.06
2018-07-26T14:45:16.263Z,90.77
2018-07-26T14:47:47.944Z,91.66
2018-07-26T14:50:19.342Z,92.44
2018-07-26T14:52:50.943Z,91.96
2018-07-26T14:55:22.498Z,97.58
2018-07-26T14:57:54.888Z,100.00
2018-07-26T15:00:26.228Z,100.00
2018-07-26T15:03:02.098Z,100.00
2018-07-26T15:05:33.484Z,100.00
2018-07-26T15:08:05.123Z,100.00
2018-07-26T15:10:36.962Z,100.00
2018-07-26T15:13:09.274Z,100.00
2018-07-26T15:15:44.448Z,100.00
2018-07-26T15:18:15.568Z,100.00
2018-07-26T15:20:46.974Z,100.00
2018-07-26T15:23:18.072Z,100.00
2018-07-26T15:25:49.076Z,100.00
2018-07-26T15:28:20.505Z,100.00
2018-07-26T15:30:53.121Z,100.00
2018-07-26T15:33:24.159Z,100.00
2018-07-26T15:35:55.202Z,100.00
2018-07-26T15:38:26.457Z,100.00
2018-07-26T15:40:59.302Z,100.00
2018-07-26T15:43:30.824Z,100.00
2018-07-26T15:46:01.726Z,100.00
2018-07-26T15:48:32.726Z,100.00
2018-07-26T15:51:04.080Z,100.00
2018-07-26T15:53:35.387Z,100.00
2018-07-26T15:56:06.600Z,100.00
2018-07-26T15:58:37.403Z,100.00
2018-07-26T16:01:08.661Z,100.00
2018-07-26T16:03:39.883Z,100.00
2018-07-26T16:06:10.767Z,100.00
2018-07-26T16:08:41.899Z,100.00
2018-07-26T16:11:13.227Z,100.00
2018-07-26T16:13:44.609Z,100.00
2018-07-26T16:16:16.628Z,100.00
2018-07-26T16:18:48.078Z,100.00
2018-07-26T16:21:19.300Z,100.00
2018-07-26T16:23:51.420Z,100.00
2018-07-26T16:26:23.779Z,100.00
2018-07-26T16:28:54.829Z,100.00
2018-07-26T16:31:26.681Z,100.00
2018-07-26T16:33:59.063Z,100.00
2018-07-26T16:36:30.148Z,100.00
2018-07-26T16:39:01.355Z,100.00
2018-07-26T16:41:32.530Z,100.00
2018-07-26T16:44:03.850Z,100.00
2018-07-26T16:46:36.014Z,100.00
2018-07-26T16:49:08.391Z,100.00
2018-07-26T16:51:40.645Z,100.00
2018-07-26T16:54:13.118Z,100.00
2018-07-26T16:56:44.843Z,100.00
2018-07-26T16:59:15.972Z,100.00
2018-07-26T17:01:47.593Z,100.00
2018-07-26T17:04:19.340Z,100.00
2018-07-26T17:06:51.006Z,100.00
2018-07-26T17:09:22.191Z,100.00
2018-07-26T17:11:54.079Z,100.00
2018-07-26T17:14:26.087Z,100.00
2018-07-26T17:16:58.755Z,100.00
2018-07-26T17:19:32.897Z,100.00
2018-07-26T17:22:04.552Z,100.00
2018-07-26T17:24:36.443Z,100.00
2018-07-26T17:27:08.074Z,100.00
2018-07-26T17:29:42.036Z,100.00
2018-07-26T17:32:13.532Z,100.00
2018-07-26T17:34:45.469Z,100.00
2018-07-26T17:37:18.034Z,100.00
2018-07-26T17:39:50.713Z,100.00
2018-07-26T17:42:22.537Z,100.00
2018-07-26T17:44:53.730Z,100.00
2018-07-26T17:47:24.933Z,100.00
2018-07-26T17:49:56.377Z,100.00
2018-07-26T17:52:27.733Z,100.00
2018-07-26T17:54:59.213Z,100.00
2018-07-26T17:57:32.536Z,100.00
2018-07-26T18:00:06.851Z,100.00
2018-07-26T18:02:38.833Z,100.00
2018-07-26T18:05:11.226Z,100.00
2018-07-26T18:07:42.964Z,100.00
2018-07-26T18:10:14.112Z,100.00
2018-07-26T18:12:46.476Z,100.00
2018-07-26T18:15:19.534Z,100.00
2018-07-26T18:17:52.722Z,100.00
2018-07-26T18:20:25.712Z,100.00
2018-07-26T18:22:56.970Z,100.00
2018-07-26T18:25:30.350Z,100.00
2018-07-26T18:28:01.878Z,100.00
2018-07-26T18:30:38.188Z,100.00
2018-07-26T18:33:10.112Z,100.00
2018-07-26T18:35:41.411Z,100.00
2018-07-26T18:38:14.361Z,100.00
2018-07-26T18:40:46.548Z,100.00
2018-07-26T18:43:18.007Z,100.00
2018-07-26T18:45:49.605Z,100.00
2018-07-26T18:48:21.138Z,100.00
2018-07-26T18:50:53.053Z,100.00
2018-07-26T18:53:24.483Z,100.00
2018-07-26T18:55:56.403Z,100.00
2018-07-26T18:58:29.197Z,100.00
2018-07-26T19:01:00.592Z,100.00
2018-07-26T19:03:31.778Z,100.00
2018-07-26T19:06:04.077Z,100.00
2018-07-26T19:08:36.281Z,100.00
2018-07-26T19:11:08.051Z,100.00
2018-07-26T19:13:39.387Z,100.00
2018-07-26T19:16:12.037Z,100.00
2018-07-26T19:18:44.808Z,100.00
2018-07-26T19:21:17.086Z,100.00
2018-07-26T19:23:49.094Z,100.00
2018-07-26T19:26:20.502Z,100.00
2018-07-26T19:28:52.381Z,100.00
2018-07-26T19:31:25.502Z,100.00
2018-07-26T19:33:56.706Z,100.00
2018-07-26T19:36:28.032Z,100.00
2018-07-26T19:38:59.279Z,100.00
2018-07-26T19:41:31.754Z,100.00
2018-07-26T19:44:06.764Z,100.00
2018-07-26T19:46:41.600Z,100.00
2018-07-26T19:49:13.071Z,100.00
2018-07-26T19:51:43.998Z,100.00
2018-07-26T19:54:17.597Z,100.00
2018-07-26T19:56:49.312Z,100.00
2018-07-26T19:59:20.709Z,100.00
2018-07-26T20:01:51.999Z,100.00
2018-07-26T20:04:25.232Z,100.00
2018-07-26T20:06:56.664Z,100.00
2018-07-26T20:09:28.137Z,100.00
2018-07-26T20:12:00.452Z,100.00
2018-07-26T20:14:31.695Z,100.00
2018-07-26T20:17:03.081Z,100.00
2018-07-26T20:19:35.813Z,100.00
2018-07-26T20:22:07.531Z,100.00
2018-07-26T20:24:40.937Z,100.00
2018-07-26T20:27:12.287Z,100.00
2018-07-26T20:29:43.471Z,100.00
2018-07-26T20:32:22.047Z,100.00
2018-07-26T20:34:53.237Z,100.00
2018-07-26T20:37:24.258Z,100.00
2018-07-26T20:39:55.333Z,100.00
2018-07-26T20:42:28.824Z,100.00
2018-07-26T20:45:02.078Z,100.00
2018-07-26T20:47:33.478Z,100.00
2018-07-26T20:50:08.374Z,100.00
2018-07-26T20:52:40.045Z,100.00
2018-07-26T20:55:11.652Z,100.00
2018-07-26T20:57:43.151Z,100.00
2018-07-26T21:00:15.149Z,100.00
2018-07-26T21:02:46.325Z,100.00
2018-07-26T21:05:18.090Z,100.00
2018-07-26T21:07:50.838Z,100.00
2018-07-26T21:10:23.005Z,100.00
2018-07-26T21:12:54.275Z,100.00
2018-07-26T21:15:25.499Z,100.00
2018-07-26T21:17:56.774Z,100.00
2018-07-26T21:20:28.923Z,100.00
2018-07-26T21:23:00.223Z,100.00
2018-07-26T21:25:32.186Z,100.00
2018-07-26T21:28:03.103Z,100.00
2018-07-26T21:30:34.429Z,100.00
2018-07-26T21:33:06.571Z,100.00
2018-07-26T21:35:37.964Z,100.00
2018-07-26T21:38:09.054Z,100.00
2018-07-26T21:40:40.787Z,100.00
2018-07-26T21:43:12.160Z,100.00
2018-07-26T21:45:43.249Z,100.00
2018-07-26T21:48:15.262Z,100.00
2018-07-26T21:50:46.714Z,100.00
2018-07-26T21:53:17.810Z,100.00
2018-07-26T21:55:51.905Z,100.00
2018-07-26T21:58:23.259Z,100.00
2018-07-26T22:00:59.207Z,100.00
2018-07-26T22:03:31.077Z,100.00
2018-07-26T22:06:02.399Z,100.00
2018-07-26T22:08:35.198Z,100.00
2018-07-26T22:11:12.439Z,100.00
2018-07-26T22:13:43.683Z,100.00
2018-07-26T22:16:14.831Z,100.00
2018-07-26T22:18:45.935Z,100.00
2018-07-26T22:21:17.176Z,100.00
2018-07-26T22:23:48.867Z,100.00
2018-07-26T22:26:20.026Z,100.00
2018-07-26T22:28:51.231Z,100.00
2018-07-26T22:31:22.691Z,100.00
2018-07-26T22:33:53.651Z,100.00
2018-07-26T22:36:25.167Z,100.00
2018-07-26T22:38:56.010Z,100.00
2018-07-26T22:41:27.099Z,100.00
2018-07-26T22:43:58.291Z,100.00
2018-07-26T22:46:29.374Z,100.00
2018-07-26T22:49:00.332Z,100.00
2018-07-26T22:51:32.078Z,100.00
2018-07-26T22:54:03.976Z,100.00
2018-07-26T22:56:35.354Z,100.00
2018-07-26T22:59:06.312Z,100.00
2018-07-26T23:01:37.643Z,100.00
2018-07-26T23:04:09.017Z,100.00
2018-07-26T23:06:40.084Z,100.00
2018-07-26T23:09:12.698Z,100.00
2018-07-26T23:11:44.322Z,100.00
2018-07-26T23:14:15.615Z,100.00
2018-07-26T23:16:46.944Z,100.00
2018-07-26T23:19:18.723Z,100.00
2018-07-26T23:21:52.357Z,100.00
2018-07-26T23:24:23.401Z,100.00
2018-07-26T23:26:54.434Z,100.00
2018-07-26T23:29:26.520Z,100.00
2018-07-26T23:31:57.556Z,100.00
2018-07-26T23:34:29.301Z,100.00
2018-07-26T23:37:02.110Z,100.00
2018-07-26T23:39:33.192Z,100.00
2018-07-26T23:42:05.263Z,100.00
2018-07-26T23:44:36.418Z,100.00
2018-07-26T23:47:07.682Z,100.00
2018-07-26T23:49:38.655Z,100.00
2018-07-26T23:52:09.847Z,100.00
2018-07-26T23:54:40.710Z,100.00
2018-07-26T23:57:12.799Z,100.00
2018-07-26T23:59:44.389Z,100.00
